Time;durP1;ratioP1;P1;durP2;ratioP2;P2;SDS_P1;SDS_P2;PMS_P1;PMS_P2;Temp;Humidity;BMP_temperature;BMP_pressure;BME280_temperature;BME280_humidity;BME280_pressure;Samples;Min_cycle;Max_cycle;Signal;HPM_P1;HPM_P2
2023/04/06 00:02:11;;;;;;;17.23;7.88;;;;;;;2.49;85.84;100686.16;5032254;28;20041;-89
2023/04/06 00:04:39;;;;;;;11.93;7.32;;;;;;;2.04;87.33;100624.75;5044282;28;20037;-88
2023/04/06 00:07:07;;;;;;;13.30;8.38;;;;;;;2.45;88.83;100721.03;5041574;28;20079;-91
2023/04/06 00:09:34;;;;;;;13.20;8.43;;;;;;;2.07;90.07;100671.72;5026730;28;20077;-93
2023/04/06 00:12:06;;;;;;;15.90;8.63;;;;;;;2.09;91.53;100675.19;5020026;28;20051;-91
2023/04/06 00:14:34;;;;;;;13.45;8.57;;;;;;;2.08;91.12;100650.81;5037991;28;20055;-89
2023/04/06 00:17:01;;;;;;;15.20;8.18;;;;;;;2.09;90.38;100646.44;5014719;28;20068;-91
2023/04/06 00:19:29;;;;;;;13.93;9.55;;;;;;;1.99;89.38;100653.50;4994524;28;20034;-90
2023/04/06 00:22:05;;;;;;;15.40;9.80;;;;;;;1.63;88.34;100596.34;5033403;28;20045;-90
2023/04/06 00:24:36;;;;;;;15.63;9.73;;;;;;;2.35;87.69;100704.59;5015941;28;20042;-87
2023/04/06 00:27:10;;;;;;;14.43;9.07;;;;;;;2.33;87.55;100710.69;5046549;28;20068;-88
2023/04/06 00:29:40;;;;;;;14.70;9.93;;;;;;;2.41;88.40;100708.88;5048635;28;20053;-89
2023/04/06 00:32:10;;;;;;;14.85;9.98;;;;;;;1.81;86.26;100590.97;5038285;28;20108;-90
2023/04/06 00:34:38;;;;;;;14.13;10.13;;;;;;;2.44;84.81;100686.19;5030961;28;20048;-94
2023/04/06 00:37:11;;;;;;;18.55;10.23;;;;;;;2.33;84.45;100674.13;5027578;28;20044;-93
2023/04/06 00:39:38;;;;;;;16.02;10.18;;;;;;;2.22;83.80;100660.25;5026650;28;20037;-94
2023/04/06 00:42:13;;;;;;;19.63;10.68;;;;;;;2.40;84.17;100694.06;5018900;28;20064;-94
2023/04/06 00:44:41;;;;;;;17.08;10.85;;;;;;;1.96;84.29;100623.94;5026237;28;20046;-92
2023/04/06 00:47:11;;;;;;;;;;;;;;;2.33;83.85;100695.03;5051687;28;20048;-88
2023/04/06 00:49:40;;;;;;;16.48;10.23;;;;;;;1.90;82.78;100622.22;5032930;28;19936;-91
2023/04/06 00:52:08;;;;;;;12.88;8.98;;;;;;;1.99;83.00;100627.38;5039665;28;20108;-92
2023/04/06 00:54:36;;;;;;;14.38;9.13;;;;;;;2.35;85.03;100677.59;4994837;28;20478;-94
2023/04/06 00:57:08;;;;;;;17.83;10.10;;;;;;;2.09;86.27;100644.69;5027402;28;20038;-88
2023/04/06 00:59:43;;;;;;;14.35;9.65;;;;;;;1.53;86.56;100550.31;5026998;28;20053;-91
2023/04/06 01:02:17;;;;;;;14.27;9.13;;;;;;;1.45;87.30;100554.72;5036419;28;20048;-93
2023/04/06 01:04:45;;;;;;;14.18;8.43;;;;;;;2.06;87.19;100672.59;5034564;28;20041;-88
2023/04/06 01:07:12;;;;;;;16.85;9.07;;;;;;;1.98;87.26;100671.78;5047828;28;20049;-92
2023/04/06 01:09:41;;;;;;;13.82;8.40;;;;;;;1.89;87.50;100657.03;5026395;28;20064;-89
2023/04/06 01:12:11;;;;;;;14.13;8.90;;;;;;;1.98;87.83;100671.78;5050562;28;20111;-90
2023/04/06 01:14:42;;;;;;;15.73;8.55;;;;;;;2.00;87.58;100675.25;5045777;28;20041;-89
2023/04/06 01:17:13;;;;;;;14.48;8.65;;;;;;;1.34;87.06;100562.63;5052345;28;20064;-91
2023/04/06 01:19:41;;;;;;;13.90;8.82;;;;;;;1.31;87.57;100567.84;5030961;28;20375;-90
2023/04/06 01:22:18;;;;;;;14.15;8.75;;;;;;;1.21;88.06;100551.41;5025569;28;20033;-91
2023/04/06 01:24:47;;;;;;;12.50;8.82;;;;;;;1.25;87.45;100562.69;5055902;28;20081;-90
2023/04/06 01:27:14;;;;;;;12.50;8.43;;;;;;;1.84;87.19;100665.81;5043103;28;20042;-90
2023/04/06 01:29:43;;;;;;;14.65;8.48;;;;;;;1.85;87.66;100657.97;5044838;28;20053;-88
2023/04/06 01:32:10;;;;;;;10.98;8.55;;;;;;;1.60;88.03;100619.84;5047365;28;20072;-91
2023/04/06 01:34:48;;;;;;;12.00;8.43;;;;;;;1.87;88.04;100650.13;5029683;28;20045;-89
2023/04/06 01:37:17;;;;;;;12.75;8.68;;;;;;;1.86;87.66;100651.00;5032893;28;20037;-91
2023/04/06 01:39:46;;;;;;;13.93;9.20;;;;;;;1.83;87.38;100656.25;5054659;28;20030;-93
2023/04/06 01:42:14;;;;;;;12.85;8.95;;;;;;;1.70;87.46;100637.19;5034917;28;20041;-88
2023/04/06 01:44:47;;;;;;;15.60;8.90;;;;;;;1.75;87.13;100653.66;5028266;28;20050;-90
2023/04/06 01:47:17;;;;;;;13.47;9.30;;;;;;;1.45;87.46;100606.91;5027489;28;20029;-90
2023/04/06 01:49:49;;;;;;;14.18;8.93;;;;;;;0.97;88.19;100528.06;5046073;28;20076;-93
2023/04/06 01:52:20;;;;;;;13.23;8.80;;;;;;;1.61;88.92;100650.28;5016458;28;20067;-91
2023/04/06 01:54:52;;;;;;;12.55;8.70;;;;;;;1.62;89.00;100642.44;5010399;28;20145;-85
2023/04/06 01:57:20;;;;;;;12.52;8.63;;;;;;;1.45;89.32;100601.69;5044426;28;20037;-88
2023/04/06 01:59:50;;;;;;;11.20;8.77;;;;;;;1.79;88.55;100642.34;5030302;28;20041;-87
2023/04/06 02:02:17;;;;;;;15.30;8.40;;;;;;;1.82;88.11;100647.53;5052051;28;20028;-86
2023/04/06 02:04:52;;;;;;;14.50;8.52;;;;;;;1.75;88.92;100646.69;5036949;28;20033;-87
2023/04/06 02:07:21;;;;;;;13.23;8.57;;;;;;;1.67;89.29;100653.75;5043371;28;20108;-88
2023/04/06 02:09:54;;;;;;;14.00;8.90;;;;;;;1.27;89.69;100581.78;5047360;28;20052;-86
2023/04/06 02:12:25;;;;;;;14.50;9.38;;;;;;;0.91;90.62;100539.44;5032460;28;20037;-87
2023/04/06 02:14:56;;;;;;;11.35;8.65;;;;;;;1.52;91.10;100650.34;5030498;28;20029;-87
2023/04/06 02:17:23;;;;;;;12.88;8.93;;;;;;;1.27;92.62;100624.41;5043061;28;20037;-86
2023/04/06 02:19:51;;;;;;;12.90;8.77;;;;;;;0.98;92.79;100580.22;5037642;28;20109;-86
2023/04/06 02:22:18;;;;;;;13.80;8.80;;;;;;;0.72;93.43;100534.31;5038944;28;20033;-88
2023/04/06 02:24:46;;;;;;;14.15;8.73;;;;;;;1.35;93.92;100651.31;5044324;28;20072;-86
2023/04/06 02:27:16;;;;;;;14.13;8.77;;;;;;;1.08;94.62;100601.06;5032754;28;20029;-86
2023/04/06 02:29:46;;;;;;;13.30;8.50;;;;;;;1.33;95.36;100646.97;5045851;28;20047;-88
2023/04/06 02:32:14;;;;;;;12.35;8.80;;;;;;;1.31;96.83;100651.34;5049678;28;20044;-89
2023/04/06 02:34:41;;;;;;;13.23;8.45;;;;;;;1.36;98.05;100640.00;5044048;28;20055;-87
2023/04/06 02:37:08;;;;;;;13.00;7.95;;;;;;;0.92;97.88;100571.56;5049076;28;20052;-89
2023/04/06 02:39:42;;;;;;;10.98;7.55;;;;;;;0.77;99.60;100561.22;5052807;28;20073;-87
2023/04/06 02:42:12;;;;;;;12.02;8.30;;;;;;;0.40;100.00;100521.41;5061195;28;20037;-87
2023/04/06 02:44:39;;;;;;;12.05;8.10;;;;;;;0.52;100.00;100571.72;5049347;28;20029;-87
2023/04/06 02:47:10;;;;;;;14.82;8.65;;;;;;;0.17;100.00;100522.34;5060102;28;20025;-91
2023/04/06 02:49:37;;;;;;;12.85;8.88;;;;;;;0.83;100.00;100632.44;5042839;28;20135;-88
2023/04/06 02:52:04;;;;;;;14.75;8.30;;;;;;;0.73;100.00;100635.09;5042708;28;20026;-90
2023/04/06 02:54:36;;;;;;;15.57;9.18;;;;;;;0.31;100.00;100570.06;5046478;28;20037;-91
2023/04/06 02:57:03;;;;;;;14.17;9.27;;;;;;;0.75;100.00;100643.78;5023574;28;20033;-89
2023/04/06 02:59:31;;;;;;;12.68;9.10;;;;;;;0.00;100.00;100521.53;5046137;28;20463;-91
2023/04/06 03:01:58;;;;;;;13.93;9.27;;;;;;;0.39;100.00;100582.19;5058902;28;20029;-88
2023/04/06 03:04:25;;;;;;;14.20;9.20;;;;;;;0.67;100.00;100631.63;5051528;28;20060;-88
2023/04/06 03:06:53;;;;;;;13.15;9.20;;;;;;;0.60;100.00;100618.63;5038691;28;20112;-89
2023/04/06 03:09:22;;;;;;;13.60;9.20;;;;;;;0.70;100.00;100638.56;5021597;28;20030;-90
2023/04/06 03:11:49;;;;;;;15.15;9.93;;;;;;;0.21;100.00;100563.13;5039933;28;20037;-88
2023/04/06 03:14:22;;;;;;;13.45;9.18;;;;;;;0.68;100.00;100643.78;5070358;28;20085;-89
2023/04/06 03:16:51;;;;;;;14.88;9.43;;;;;;;0.62;100.00;100632.53;5046919;28;20034;-88
2023/04/06 03:19:20;;;;;;;14.43;9.60;;;;;;;0.66;100.00;100642.91;5048295;28;20045;-87
2023/04/06 03:21:49;;;;;;;15.88;8.98;;;;;;;0.66;100.00;100639.44;5022448;28;20100;-88
2023/04/06 03:24:16;;;;;;;12.77;9.30;;;;;;;0.33;100.00;100596.97;5053305;28;20040;-89
2023/04/06 03:26:43;;;;;;;14.77;9.95;;;;;;;-0.08;100.00;100529.34;5015742;28;20042;-92
2023/04/06 03:29:13;;;;;;;16.63;10.45;;;;;;;0.27;100.00;100596.13;5050650;28;20050;-90
2023/04/06 03:31:40;;;;;;;14.88;9.40;;;;;;;-0.19;100.00;100531.13;5024752;28;20105;-91
2023/04/06 03:34:07;;;;;;;15.15;9.80;;;;;;;0.55;100.00;100656.84;5015085;28;20083;-91
2023/04/06 03:36:36;;;;;;;18.05;9.75;;;;;;;0.55;100.00;100654.25;5016135;28;20048;-92
2023/04/06 03:39:03;;;;;;;15.45;10.25;;;;;;;0.54;100.00;100649.91;4995017;28;20033;-90
2023/04/06 03:41:37;;;;;;;19.25;9.88;;;;;;;0.52;100.00;100639.47;5031275;28;20048;-86
2023/04/06 03:44:06;;;;;;;17.58;10.05;;;;;;;0.40;100.00;100617.78;4996508;28;20077;-92
2023/04/06 03:46:34;;;;;;;15.18;10.35;;;;;;;0.45;100.00;100608.25;5038159;28;20486;-90
2023/04/06 03:49:01;;;;;;;14.23;10.20;;;;;;;0.24;100.00;100576.16;5030344;28;20124;-92
2023/04/06 03:51:28;;;;;;;16.65;10.50;;;;;;;0.32;100.00;100595.22;5027044;28;20060;-89
2023/04/06 03:53:55;;;;;;;14.88;10.00;;;;;;;0.41;100.00;100603.91;4992863;28;20145;-92
2023/04/06 03:56:22;;;;;;;17.75;10.52;;;;;;;0.53;100.00;100609.06;5019694;28;20041;-92
2023/04/06 03:58:51;;;;;;;15.75;10.85;;;;;;;0.20;100.00;100550.13;5019796;28;20037;-88
2023/04/06 04:01:23;;;;;;;14.82;10.48;;;;;;;0.71;100.00;100658.53;5006919;28;20041;-88
2023/04/06 04:03:53;;;;;;;15.93;10.25;;;;;;;0.17;100.00;100576.16;5045007;28;20049;-92
2023/04/06 04:06:21;;;;;;;16.52;10.00;;;;;;;0.16;100.00;100588.31;5037472;28;20064;-92
2023/04/06 04:08:51;;;;;;;17.65;10.57;;;;;;;0.10;100.00;100585.72;5011118;28;20065;-92
2023/04/06 04:11:17;;;;;;;19.55;10.38;;;;;;;0.07;100.00;100606.56;5044545;28;20604;-93
2023/04/06 04:13:45;;;;;;;17.58;10.25;;;;;;;0.39;100.00;100657.75;5041812;28;20061;-94
2023/04/06 04:16:12;;;;;;;17.33;10.90;;;;;;;0.34;100.00;100663.81;5035659;28;20565;-93
2023/04/06 04:18:39;;;;;;;16.60;10.75;;;;;;;-0.07;100.00;100598.78;5041658;28;20042;-89
2023/04/06 04:21:07;;;;;;;14.40;10.77;;;;;;;0.05;100.00;100618.72;5035294;28;20418;-92
2023/04/06 04:23:36;;;;;;;16.67;10.68;;;;;;;0.37;100.00;100668.16;5024328;28;20053;-94
2023/04/06 04:26:04;;;;;;;15.80;10.77;;;;;;;0.33;100.00;100669.91;5022975;28;20033;-93
2023/04/06 04:28:34;;;;;;;16.15;10.35;;;;;;;-0.10;100.00;100603.97;5035419;28;20044;-91
2023/04/06 04:31:09;;;;;;;15.25;10.68;;;;;;;-0.27;100.00;100582.28;5051891;28;20047;-91
2023/04/06 04:33:37;;;;;;;17.50;10.15;;;;;;;0.21;100.00;100664.69;5012788;28;20079;-93
2023/04/06 04:36:08;;;;;;;15.50;10.18;;;;;;;0.05;100.00;100643.88;5006799;28;20136;-94
2023/04/06 04:38:41;;;;;;;14.93;11.25;;;;;;;-0.07;100.00;100611.78;5001144;28;20064;-89
2023/04/06 04:41:09;;;;;;;13.77;10.27;;;;;;;-0.08;100.00;100612.66;5016017;28;20045;-94
2023/04/06 04:43:38;;;;;;;17.73;10.68;;;;;;;-0.31;100.00;100561.47;5030668;28;20083;-94
2023/04/06 04:46:05;;;;;;;17.63;10.98;;;;;;;0.06;100.00;100619.56;5034761;28;20053;-94
2023/04/06 04:48:33;;;;;;;15.50;10.75;;;;;;;-0.22;100.00;100577.09;5019146;28;20034;-93
2023/04/06 04:51:04;;;;;;;17.48;10.80;;;;;;;0.38;100.00;100666.44;5022997;28;20109;-93
2023/04/06 04:53:37;;;;;;;16.85;11.30;;;;;;;0.22;100.00;100648.22;5010546;28;20158;-95
2023/04/06 04:56:07;;;;;;;16.00;11.38;;;;;;;-0.26;100.00;100567.53;5035786;28;20052;-94
2023/04/06 04:58:36;;;;;;;15.48;10.43;;;;;;;0.17;100.00;100652.53;5027484;28;20037;-94
2023/04/06 05:01:06;;;;;;;17.98;10.93;;;;;;;0.30;100.00;100680.34;5049664;28;20059;-85
2023/04/06 05:03:38;;;;;;;20.08;11.63;;;;;;;-0.34;100.00;100574.50;5067522;28;20033;-87
2023/04/06 05:06:07;;;;;;;20.25;11.77;;;;;;;0.00;100.00;100628.28;5221122;23;20045;-88
2023/04/06 05:08:39;;;;;;;19.95;11.35;;;;;;;-0.03;100.00;100618.72;5056215;28;20072;-86
2023/04/06 05:11:06;;;;;;;16.88;10.93;;;;;;;-0.02;100.00;100617.00;5029684;28;20122;-87
2023/04/06 05:13:34;;;;;;;19.25;10.73;;;;;;;0.24;100.00;100656.03;5055914;28;20068;-91
2023/04/06 05:16:01;;;;;;;18.73;11.57;;;;;;;-0.24;100.00;100571.00;5037288;28;20060;-87
2023/04/06 05:18:28;;;;;;;20.73;12.32;;;;;;;0.42;100.00;100687.28;5055185;28;20117;-86
2023/04/06 05:21:27;;;;;;;19.52;11.43;;;;;;;0.45;100.00;100679.47;5246459;23;20058;-86
2023/04/06 05:23:56;;;;;;;17.55;11.65;;;;;;;0.46;100.00;100682.94;5013910;28;20046;-93
2023/04/06 05:26:27;;;;;;;19.85;11.32;;;;;;;-0.08;100.00;100571.00;5044565;28;20049;-87
2023/04/06 05:28:59;;;;;;;24.45;15.45;;;;;;;0.65;100.00;100682.00;5057437;28;20045;-88
2023/04/06 05:31:26;;;;;;;19.88;11.32;;;;;;;0.69;100.00;100686.34;5034106;28;20052;-87
2023/04/06 05:33:53;;;;;;;17.63;11.57;;;;;;;0.67;100.00;100682.88;5036121;28;20069;-90
2023/04/06 05:36:23;;;;;;;18.13;11.57;;;;;;;0.67;100.00;100694.16;5054972;28;20033;-88
2023/04/06 05:38:56;;;;;;;15.68;11.15;;;;;;;0.68;100.00;100687.22;5037921;28;20094;-88
2023/04/06 05:41:26;;;;;;;17.80;11.95;;;;;;;0.72;100.00;100701.13;5040584;28;20064;-90
2023/04/06 05:43:57;;;;;;;18.35;11.93;;;;;;;0.57;100.00;100660.31;5030081;28;20061;-93
2023/04/06 05:46:24;;;;;;;21.38;11.70;;;;;;;0.88;100.00;100687.16;5012379;28;20053;-93
2023/04/06 05:48:51;;;;;;;17.55;12.07;;;;;;;0.77;100.00;100648.09;5004402;28;20544;-92
2023/04/06 05:51:19;;;;;;;19.45;11.38;;;;;;;1.04;100.00;100696.69;5024197;28;20046;-95
2023/04/06 05:53:46;;;;;;;17.95;11.88;;;;;;;0.72;100.00;100634.22;5008182;28;20050;-93
2023/04/06 05:56:23;;;;;;;26.40;11.82;;;;;;;1.12;100.00;100691.41;5031977;28;20044;-87
2023/04/06 05:58:55;;;;;;;23.85;12.05;;;;;;;1.14;100.00;100689.69;5029267;28;20135;-94
2023/04/06 06:01:29;;;;;;;26.20;12.32;;;;;;;1.19;100.00;100704.44;5042281;28;20049;-92
2023/04/06 06:04:00;;;;;;;18.98;12.27;;;;;;;1.27;100.00;100697.44;5051184;28;20060;-90
2023/04/06 06:06:37;;;;;;;18.55;11.55;;;;;;;0.69;100.00;100588.16;5047969;28;20037;-89
2023/04/06 06:09:12;;;;;;;18.60;12.70;;;;;;;1.11;100.00;100654.03;5045970;28;20137;-91
2023/04/06 06:11:40;;;;;;;23.30;13.02;;;;;;;1.42;100.00;100700.88;5036631;28;20072;-92
2023/04/06 06:14:21;;;;;;;17.70;12.20;;;;;;;1.29;100.00;100673.94;5038406;28;20044;-94
2023/04/06 06:16:49;;;;;;;24.23;13.05;;;;;;;1.51;100.00;100679.94;5032803;28;20041;-94
2023/04/06 06:19:31;;;;;;;30.00;13.35;;;;;;;1.35;100.00;100653.94;5033884;28;20047;-92
2023/04/06 06:22:04;;;;;;;25.67;13.60;;;;;;;1.78;100.00;100705.88;5032069;28;20053;-92
2023/04/06 06:24:33;;;;;;;29.77;14.05;;;;;;;1.89;100.00;100703.22;5024797;28;20099;-89
2023/04/06 06:27:07;;;;;;;26.02;12.80;;;;;;;1.97;100.00;100702.25;5047905;28;20045;-87
2023/04/06 06:29:36;;;;;;;24.48;13.25;;;;;;;2.09;100.00;100701.31;5034604;28;20041;-91
2023/04/06 06:32:04;;;;;;;18.88;12.38;;;;;;;2.03;100.00;100670.88;5039483;28;20068;-91
2023/04/06 06:34:31;;;;;;;26.55;14.60;;;;;;;2.30;100.00;100698.53;5032966;28;20041;-91
2023/04/06 06:37:09;;;;;;;27.33;13.15;;;;;;;2.42;100.00;100697.53;5050261;28;20221;-92
2023/04/06 06:39:40;;;;;;;23.35;13.20;;;;;;;2.47;100.00;100701.00;5039893;28;20045;-92
2023/04/06 06:42:30;;;;;;;20.10;13.43;;;;;;;2.52;100.00;100701.78;5031305;28;20053;-93
2023/04/06 06:44:59;;;;;;;21.77;12.93;;;;;;;2.61;100.00;100691.28;5026564;28;20069;-92
2023/04/06 06:47:37;;;;;;;32.03;14.07;;;;;;;2.90;100.00;100701.41;5035817;28;20119;-92
2023/04/06 06:50:06;;;;;;;24.02;13.48;;;;;;;3.09;100.00;100702.09;5036769;28;20049;-91
2023/04/06 06:52:34;;;;;;;25.17;14.32;;;;;;;3.29;100.00;100691.38;5056554;28;20041;-92
2023/04/06 06:55:02;;;;;;;25.30;13.57;;;;;;;3.56;100.00;100690.16;5025157;28;20049;-91
2023/04/06 06:57:29;;;;;;;22.95;13.63;;;;;;;3.82;100.00;100699.38;5032033;28;20112;-90
2023/04/06 07:00:00;;;;;;;28.23;13.95;;;;;;;3.93;97.57;100674.78;5029807;28;20045;-91
2023/04/06 07:02:39;;;;;;;23.75;14.07;;;;;;;4.03;94.47;100655.38;5000206;28;20137;-92
2023/04/06 07:05:19;;;;;;;21.13;13.45;;;;;;;4.30;92.31;100646.19;5021009;28;20080;-91
2023/04/06 07:07:55;;;;;;;26.45;13.73;;;;;;;4.71;86.02;100645.47;5027397;28;20687;-91
2023/04/06 07:10:24;;;;;;;23.48;14.27;;;;;;;5.43;79.97;100695.59;5005971;28;20052;-91
2023/04/06 07:12:56;;;;;;;22.85;13.05;;;;;;;5.73;75.25;100673.03;5007681;28;20046;-91
2023/04/06 07:15:23;;;;;;;25.88;12.05;;;;;;;6.12;71.60;100675.69;5014847;28;20540;-90
2023/04/06 07:18:03;;;;;;;21.55;12.70;;;;;;;6.45;67.12;100680.09;5037396;28;20100;-90
2023/04/06 07:20:33;;;;;;;21.15;13.27;;;;;;;6.65;68.01;100677.81;5016738;28;20046;-91
2023/04/06 07:23:05;;;;;;;19.80;12.48;;;;;;;6.47;65.78;100680.03;5049508;28;20088;-91
2023/04/06 07:25:32;;;;;;;17.70;12.45;;;;;;;6.39;61.45;100676.75;5024692;28;20052;-91
2023/04/06 07:28:00;;;;;;;19.77;12.13;;;;;;;6.60;59.07;100684.09;5018540;28;20060;-92
2023/04/06 07:30:30;;;;;;;18.98;12.20;;;;;;;6.69;57.91;100695.25;5029948;28;20041;-91
2023/04/06 07:33:02;;;;;;;18.15;12.07;;;;;;;6.72;58.31;100688.19;5011534;28;20041;-92
2023/04/06 07:35:40;;;;;;;17.95;12.60;;;;;;;6.54;56.54;100700.91;5038456;28;20053;-92
2023/04/06 07:38:07;;;;;;;17.17;12.15;;;;;;;6.43;57.14;100681.91;5018795;28;20049;-91
2023/04/06 07:40:35;;;;;;;20.23;13.25;;;;;;;6.18;56.81;100649.22;5002856;28;20053;-90
2023/04/06 07:45:57;;;;;;;18.70;12.40;;;;;;;6.47;55.54;100641.44;5049269;28;20038;-88
2023/04/06 07:48:25;;;;;;;19.90;12.85;;;;;;;7.13;55.53;100695.81;5051674;28;20067;-90
2023/04/06 07:50:52;;;;;;;19.92;13.02;;;;;;;7.63;51.68;100690.84;5056348;28;20080;-90
2023/04/06 07:53:19;;;;;;;21.25;13.05;;;;;;;7.91;52.11;100693.47;5052876;28;20105;-91
2023/04/06 07:55:47;;;;;;;16.42;11.95;;;;;;;8.20;51.29;100696.06;5052633;28;20053;-89
2023/04/06 07:58:15;;;;;;;19.30;12.85;;;;;;;8.37;49.33;100699.03;5049886;28;20048;-90
2023/04/06 08:00:43;;;;;;;18.80;11.98;;;;;;;8.30;49.82;100673.75;5054956;28;20065;-89
2023/04/06 08:03:10;;;;;;;16.63;11.65;;;;;;;8.51;48.98;100669.53;5060038;28;20057;-90
2023/04/06 08:05:38;;;;;;;18.15;11.85;;;;;;;8.91;48.98;100695.44;5048209;28;20056;-90
2023/04/06 08:08:05;;;;;;;18.08;11.85;;;;;;;9.11;47.38;100689.44;5061040;28;20100;-91
2023/04/06 08:10:34;;;;;;;15.90;12.02;;;;;;;9.01;46.95;100667.78;5066586;28;20041;-92
2023/04/06 08:13:08;;;;;;;16.85;12.07;;;;;;;9.30;47.06;100689.59;5044930;28;20067;-90
2023/04/06 08:15:42;;;;;;;17.30;11.50;;;;;;;9.39;46.99;100684.88;5054152;28;20049;-90
2023/04/06 08:18:22;;;;;;;17.65;11.90;;;;;;;9.42;45.58;100682.13;5036496;28;20101;-91
2023/04/06 08:20:51;;;;;;;17.60;11.95;;;;;;;9.23;46.55;100677.56;5044878;28;20056;-91
2023/04/06 08:23:19;;;;;;;15.52;11.73;;;;;;;8.88;47.59;100699.97;5033532;28;20050;-92
2023/04/06 08:25:54;;;;;;;18.10;12.98;;;;;;;8.37;48.41;100698.16;5049984;28;20045;-93
2023/04/06 08:28:21;;;;;;;22.15;12.80;;;;;;;7.89;50.00;100672.44;5047538;28;20067;-92
2023/04/06 08:30:50;;;;;;;18.80;11.68;;;;;;;7.73;50.32;100702.81;5032729;28;20038;-91
2023/04/06 08:33:24;;;;;;;21.00;12.77;;;;;;;7.44;50.85;100636.94;5039162;28;20114;-92
2023/04/06 08:35:52;;;;;;;17.35;12.23;;;;;;;7.69;50.78;100690.66;5037594;28;20102;-93
2023/04/06 08:38:29;;;;;;;19.80;12.45;;;;;;;7.77;50.75;100675.47;5038302;28;20068;-92
2023/04/06 08:40:58;;;;;;;17.58;12.40;;;;;;;8.03;49.86;100691.31;5067033;28;20049;-92
2023/04/06 08:43:27;;;;;;;16.92;12.43;;;;;;;8.03;49.84;100690.44;5063543;28;20048;-91
2023/04/06 08:45:55;;;;;;;18.52;12.82;;;;;;;8.47;50.05;100686.41;5039589;28;20041;-90
2023/04/06 08:48:26;;;;;;;14.33;11.33;;;;;;;9.14;47.28;100694.59;5039994;28;20045;-91
2023/04/06 08:50:54;;;;;;;20.23;12.85;;;;;;;9.36;46.99;100679.69;5034783;28;20062;-91
2023/04/06 08:53:27;;;;;;;21.88;12.18;;;;;;;9.30;46.60;100684.31;5044919;28;20036;-91
2023/04/06 08:55:57;;;;;;;16.65;11.73;;;;;;;8.94;46.95;100639.88;5030966;28;20388;-91
2023/04/06 08:59:01;;;;;;;14.55;11.35;;;;;;;9.25;46.74;100684.53;5042685;28;20054;-92
2023/04/06 09:01:45;;;;;;;16.88;12.07;;;;;;;9.09;47.00;100635.81;5044214;28;20080;-92
2023/04/06 09:04:19;;;;;;;20.00;14.25;;;;;;;9.40;46.51;100680.44;5046291;28;20033;-91
2023/04/06 09:06:54;;;;;;;16.65;11.43;;;;;;;9.40;45.51;100677.81;5038745;28;20110;-91
2023/04/06 09:09:21;;;;;;;15.27;11.30;;;;;;;9.36;46.12;100661.19;5041944;28;20137;-92
2023/04/06 09:11:58;;;;;;;15.13;10.77;;;;;;;9.60;44.82;100680.53;5038556;28;20048;-91
2023/04/06 09:14:51;;;;;;;15.77;10.77;;;;;;;8.89;45.33;100588.13;5044665;28;20037;-93
2023/04/06 09:17:23;;;;;;;15.25;11.07;;;;;;;9.24;45.89;100689.84;5042097;28;20064;-91
2023/04/06 09:19:52;;;;;;;16.38;11.50;;;;;;;9.36;45.51;100676.19;5041600;28;20038;-91
2023/04/06 09:22:39;;;;;;;17.98;11.15;;;;;;;9.29;45.98;100633.25;5044592;28;20048;-90
2023/04/06 09:25:10;;;;;;;17.70;10.90;;;;;;;9.54;45.44;100643.78;5055983;28;20045;-92
2023/04/06 09:27:44;;;;;;;15.30;10.40;;;;;;;9.93;45.11;100683.63;5054122;28;20508;-93
2023/04/06 09:30:15;;;;;;;14.70;10.93;;;;;;;10.14;44.55;100668.69;5038039;28;20060;-92
2023/04/06 09:32:49;;;;;;;14.70;10.85;;;;;;;10.00;44.18;100619.00;5035643;28;20108;-92
2023/04/06 09:35:32;;;;;;;17.88;11.70;;;;;;;10.33;44.09;100661.75;5040461;28;20052;-93
2023/04/06 09:38:12;;;;;;;15.38;11.10;;;;;;;10.31;44.96;100665.41;5034899;28;20650;-91
2023/04/06 09:40:51;;;;;;;15.15;11.68;;;;;;;10.08;44.71;100618.66;5084169;23;20044;-91
2023/04/06 09:43:27;;;;;;;16.77;11.63;;;;;;;9.96;45.36;100654.41;5022608;28;20159;-91
2023/04/06 09:45:57;;;;;;;19.08;11.60;;;;;;;9.52;45.83;100647.38;5027133;28;20097;-91
2023/04/06 09:48:31;;;;;;;15.97;10.97;;;;;;;9.52;46.92;100656.19;5196954;22;20099;-91
2023/04/06 09:51:03;;;;;;;17.23;10.98;;;;;;;9.69;46.84;100637.03;5049050;28;21059;-90
2023/04/06 09:53:32;;;;;;;16.00;10.52;;;;;;;9.31;45.44;100562.72;5025281;28;20046;-93
2023/04/06 09:56:09;;;;;;;18.65;11.85;;;;;;;9.46;46.31;100600.91;5040998;28;20098;-91
2023/04/06 09:58:40;;;;;;;17.77;11.13;;;;;;;9.83;45.48;100621.47;5030857;28;20050;-92
2023/04/06 10:01:18;;;;;;;17.27;11.50;;;;;;;10.25;45.25;100649.75;5018990;28;20132;-92
2023/04/06 10:04:07;;;;;;;16.85;10.65;;;;;;;10.39;45.68;100650.06;5026609;28;20103;-92
2023/04/06 10:06:39;;;;;;;16.35;10.65;;;;;;;10.46;43.83;100607.38;5024188;28;20061;-92
2023/04/06 10:09:10;;;;;;;18.45;10.80;;;;;;;10.83;43.52;100625.16;5022202;28;20053;-92
2023/04/06 10:11:41;;;;;;;15.63;10.75;;;;;;;11.03;43.13;100623.38;5034574;28;20045;-93
2023/04/06 10:14:24;;;;;;;16.40;9.68;;;;;;;11.30;42.01;100638.06;5031388;28;20123;-90
2023/04/06 10:16:53;;;;;;;20.95;9.77;;;;;;;11.07;41.48;100583.44;5018053;28;20054;-91
2023/04/06 10:19:55;;;;;;;15.23;9.45;;;;;;;11.19;41.72;100643.84;5024472;28;20068;-93
2023/04/06 10:23:05;;;;;;;17.55;10.45;;;;;;;10.35;42.03;100532.84;5015784;28;20046;-93
2023/04/06 10:25:50;;;;;;;17.55;9.88;;;;;;;11.16;41.96;100635.19;5024452;28;20109;-93
2023/04/06 10:28:23;;;;;;;19.70;11.02;;;;;;;11.05;42.33;100600.34;5057096;28;20140;-91
2023/04/06 10:31:06;;;;;;;17.50;10.85;;;;;;;11.20;41.66;100632.31;5018809;28;20121;-93
2023/04/06 10:33:57;;;;;;;15.32;10.35;;;;;;;11.19;42.01;100613.81;5050684;28;20099;-91
2023/04/06 10:36:50;;;;;;;19.50;11.00;;;;;;;11.48;40.93;100629.25;5040841;28;20048;-90
2023/04/06 10:39:24;;;;;;;18.15;10.63;;;;;;;11.22;41.16;100611.88;5011756;28;20594;-90
2023/04/06 10:44:33;;;;;;;16.20;9.93;;;;;;;11.03;42.36;100607.50;5570069;23;20049;-91
2023/04/06 10:47:03;;;;;;;17.08;10.50;;;;;;;11.19;42.93;100619.13;5039294;28;20037;-89
2023/04/06 10:49:34;;;;;;;17.95;10.57;;;;;;;11.37;42.14;100620.06;5014756;28;20077;-91
2023/04/06 10:52:07;;;;;;;16.60;10.68;;;;;;;11.49;41.16;100577.91;5011981;28;20052;-91
2023/04/06 10:54:41;;;;;;;19.30;10.50;;;;;;;12.02;40.73;100605.47;5039237;28;20045;-92
2023/04/06 10:57:28;;;;;;;18.98;10.13;;;;;;;12.09;40.45;100559.97;5019240;28;20490;-93
2023/04/06 10:59:59;;;;;;;14.93;9.70;;;;;;;12.18;39.59;100569.25;5030992;28;20300;-90
2023/04/06 11:02:26;;;;;;;20.77;10.40;;;;;;;12.50;38.68;100604.78;5019887;28;20040;-91
2023/04/06 11:04:59;;;;;;;16.08;9.95;;;;;;;12.03;38.40;100557.59;5015155;28;20042;-92
2023/04/06 11:07:29;;;;;;;;;;;;;;;12.29;38.52;100601.41;5047588;28;20046;-91
2023/04/06 11:10:00;;;;;;;19.97;10.40;;;;;;;12.00;39.11;100579.00;5017983;28;19924;-91
2023/04/06 11:12:44;;;;;;;20.42;9.93;;;;;;;12.18;38.44;100577.22;5027344;28;20040;-92
2023/04/06 11:15:11;;;;;;;16.52;9.98;;;;;;;12.24;38.23;100582.22;5037557;28;20049;-92
2023/04/06 11:17:40;;;;;;;20.55;10.10;;;;;;;12.43;38.09;100553.78;5036040;28;20100;-92
2023/04/06 11:20:11;;;;;;;17.77;9.82;;;;;;;12.94;38.25;100592.66;5060772;28;20131;-91
2023/04/06 11:22:53;;;;;;;15.48;10.05;;;;;;;13.14;36.63;100561.50;5023280;28;20044;-92
2023/04/06 11:25:24;;;;;;;17.73;10.10;;;;;;;13.48;36.05;100581.81;5044323;28;20145;-92
2023/04/06 11:27:54;;;;;;;19.90;11.20;;;;;;;13.30;36.11;100573.03;5063450;28;20111;-91
2023/04/06 11:30:32;;;;;;;16.00;10.20;;;;;;;12.75;37.38;100580.47;5078142;28;20063;-91
2023/04/06 11:33:02;;;;;;;19.80;11.35;;;;;;;12.52;37.88;100555.09;5056360;28;20130;-91
2023/04/06 11:35:31;;;;;;;19.73;10.57;;;;;;;12.70;37.70;100575.38;5044095;28;20036;-90
2023/04/06 11:37:59;;;;;;;20.15;10.52;;;;;;;12.90;37.46;100572.53;5062644;28;20037;-91
2023/04/06 11:40:52;;;;;;;19.08;10.13;;;;;;;13.25;36.56;100559.13;5320795;23;20117;-91
2023/04/06 11:43:29;;;;;;;18.17;10.60;;;;;;;13.44;36.38;100522.59;5062314;28;20044;-91